Time;durP1;ratioP1;P1;durP2;ratioP2;P2;SDS_P1;SDS_P2;PMS_P1;PMS_P2;Temp;Humidity;BMP_temperature;BMP_pressure;BME280_temperature;BME280_humidity;BME280_pressure;Samples;Min_cycle;Max_cycle;Signal;HPM_P1;HPM_P2
2022/07/22 00:01:29;;;;;;;17.90;10.15;;;17.70;99.90;;;;;;4840980;29;20045;-74
2022/07/22 00:03:55;;;;;;;18.13;10.15;;;17.50;99.90;;;;;;4839553;29;20056;-73
2022/07/22 00:06:20;;;;;;;16.80;10.20;;;17.60;99.90;;;;;;4839313;29;20822;-72
2022/07/22 00:08:46;;;;;;;17.42;10.20;;;17.50;99.90;;;;;;4822895;29;20102;-73
2022/07/22 00:11:12;;;;;;;16.77;10.52;;;17.50;99.90;;;;;;4839128;29;20564;-73
2022/07/22 00:13:38;;;;;;;23.05;11.23;;;17.40;99.90;;;;;;4839956;29;20038;-74
2022/07/22 00:16:04;;;;;;;16.52;10.95;;;17.40;99.90;;;;;;4839183;29;20189;-74
2022/07/22 00:18:29;;;;;;;18.20;11.27;;;17.30;99.90;;;;;;4840119;29;20084;-74
2022/07/22 00:20:55;;;;;;;21.85;10.85;;;17.30;99.90;;;;;;4839767;29;20494;-74
2022/07/22 00:23:21;;;;;;;18.98;11.52;;;17.20;99.90;;;;;;4838985;29;20121;-73
2022/07/22 00:25:47;;;;;;;17.63;10.30;;;17.20;99.90;;;;;;4839925;29;20109;-73
2022/07/22 00:28:12;;;;;;;16.63;10.02;;;17.10;99.90;;;;;;4838076;29;20416;-73
2022/07/22 00:30:38;;;;;;;15.98;10.25;;;17.10;99.90;;;;;;4840311;29;20094;-73
2022/07/22 00:33:04;;;;;;;18.75;9.73;;;17.00;99.90;;;;;;4839157;29;20489;-73
2022/07/22 00:35:29;;;;;;;15.57;9.70;;;17.10;99.90;;;;;;4823206;29;20042;-73
2022/07/22 00:37:55;;;;;;;17.13;9.75;;;17.10;99.90;;;;;;4839677;29;20118;-73
2022/07/22 00:40:21;;;;;;;15.82;9.82;;;17.00;99.90;;;;;;4837470;29;20109;-73
2022/07/22 00:42:47;;;;;;;14.98;10.05;;;16.90;99.90;;;;;;4838387;29;20030;-73
2022/07/22 00:45:12;;;;;;;20.25;10.48;;;16.80;99.90;;;;;;4838320;29;20484;-73
2022/07/22 00:47:38;;;;;;;17.08;10.23;;;16.80;99.90;;;;;;4838799;29;20045;-73
2022/07/22 00:50:05;;;;;;;14.80;10.10;;;16.80;99.90;;;;;;4837659;29;20078;-73
2022/07/22 00:52:32;;;;;;;15.07;10.13;;;16.80;99.90;;;;;;4839164;29;20034;-73
2022/07/22 00:54:59;;;;;;;20.90;10.55;;;16.90;99.90;;;;;;4838110;29;20117;-74
2022/07/22 00:57:25;;;;;;;13.95;9.48;;;16.90;99.90;;;;;;4838709;29;20068;-74
2022/07/22 00:59:51;;;;;;;20.33;10.88;;;16.90;99.90;;;;;;4838318;29;20033;-73
2022/07/22 01:02:17;;;;;;;17.52;10.32;;;16.90;99.90;;;;;;4837194;29;20125;-73
2022/07/22 01:04:42;;;;;;;16.83;10.00;;;16.80;99.90;;;;;;4839335;29;20059;-74
2022/07/22 01:07:08;;;;;;;16.20;9.70;;;16.80;99.90;;;;;;4837536;29;20048;-73
2022/07/22 01:09:34;;;;;;;16.83;9.52;;;16.70;99.90;;;;;;4838130;29;20034;-73
2022/07/22 01:12:01;;;;;;;13.98;8.93;;;16.70;99.90;;;;;;4836760;29;20037;-73
2022/07/22 01:14:26;;;;;;;17.17;9.63;;;16.70;99.90;;;;;;4837615;29;20072;-74
2022/07/22 01:16:52;;;;;;;16.55;10.05;;;16.80;99.90;;;;;;4821691;29;20494;-73
2022/07/22 01:19:18;;;;;;;15.88;9.65;;;16.70;99.90;;;;;;4836375;29;20110;-74
2022/07/22 01:21:44;;;;;;;19.63;10.35;;;16.60;99.90;;;;;;4838153;29;20117;-73
2022/07/22 01:24:10;;;;;;;16.42;10.52;;;16.60;99.90;;;;;;4837374;29;20475;-73
2022/07/22 01:26:36;;;;;;;17.85;10.02;;;16.60;99.90;;;;;;4839102;29;20049;-73
2022/07/22 01:29:01;;;;;;;17.60;10.32;;;16.70;99.90;;;;;;4837653;29;20086;-73
2022/07/22 01:31:27;;;;;;;23.77;9.85;;;16.60;99.90;;;;;;4838837;29;20122;-73
2022/07/22 01:33:54;;;;;;;14.38;9.68;;;16.50;99.90;;;;;;4836337;29;20442;-73
2022/07/22 01:36:19;;;;;;;15.45;10.10;;;16.40;99.90;;;;;;4838197;29;20042;-73
2022/07/22 01:38:45;;;;;;;15.60;9.98;;;16.50;99.90;;;;;;4837946;29;20034;-73
2022/07/22 01:41:11;;;;;;;16.45;10.50;;;16.50;99.90;;;;;;4836610;29;20038;-73
2022/07/22 01:43:37;;;;;;;16.92;10.80;;;16.40;99.90;;;;;;4837822;29;20133;-73
2022/07/22 01:46:04;;;;;;;18.08;10.40;;;16.40;99.90;;;;;;4839066;29;20117;-73
2022/07/22 01:48:29;;;;;;;20.00;9.10;;;16.40;99.90;;;;;;4836276;29;20046;-74
2022/07/22 01:50:55;;;;;;;17.10;9.77;;;16.40;99.90;;;;;;4839170;29;20060;-73
2022/07/22 01:53:22;;;;;;;15.93;10.38;;;16.30;99.90;;;;;;4836767;29;20109;-74
2022/07/22 01:55:48;;;;;;;16.17;9.70;;;16.20;99.90;;;;;;4838553;29;20141;-74
2022/07/22 01:58:14;;;;;;;17.60;10.70;;;16.20;99.90;;;;;;4836967;29;20045;-73
2022/07/22 02:00:39;;;;;;;14.70;10.20;;;16.10;99.90;;;;;;4833303;29;20086;-73
2022/07/22 02:03:06;;;;;;;19.88;9.73;;;16.10;99.90;;;;;;4834726;29;20397;-72
2022/07/22 02:05:32;;;;;;;13.52;8.68;;;16.00;99.90;;;;;;4822116;29;20073;-74
2022/07/22 02:08:03;;;;;;;17.02;8.98;;;16.00;99.90;;;;;;4836397;29;20050;-73
2022/07/22 02:10:29;;;;;;;14.82;9.27;;;16.00;99.90;;;;;;4836763;29;20048;-73
2022/07/22 02:12:56;;;;;;;19.77;9.50;;;16.00;99.90;;;;;;4835580;29;20038;-73
2022/07/22 02:15:22;;;;;;;16.35;9.15;;;16.00;99.90;;;;;;4834717;29;20389;-73
2022/07/22 02:17:47;;;;;;;17.05;9.90;;;15.90;99.90;;;;;;4837162;29;20050;-73
2022/07/22 02:20:13;;;;;;;17.63;9.75;;;15.90;99.90;;;;;;4837542;29;20113;-72
2022/07/22 02:22:39;;;;;;;13.77;8.88;;;15.90;99.90;;;;;;4837053;29;20048;-73
2022/07/22 02:25:05;;;;;;;18.40;9.90;;;15.90;99.90;;;;;;4839734;29;20078;-73
2022/07/22 02:27:30;;;;;;;16.88;10.13;;;15.90;99.90;;;;;;4836328;29;20050;-73
2022/07/22 02:29:56;;;;;;;14.50;9.25;;;16.00;99.90;;;;;;4837213;29;20026;-74
2022/07/22 02:32:22;;;;;;;18.55;9.82;;;16.00;99.90;;;;;;4835456;29;20234;-73
2022/07/22 02:34:47;;;;;;;16.55;9.80;;;16.10;99.90;;;;;;4835496;29;20393;-72
2022/07/22 02:37:13;;;;;;;15.95;10.05;;;16.00;99.90;;;;;;4835770;29;20046;-73
2022/07/22 02:39:39;;;;;;;16.02;9.75;;;15.90;99.90;;;;;;4837949;29;20049;-73
2022/07/22 02:42:04;;;;;;;18.10;9.68;;;15.90;99.90;;;;;;4837197;29;20488;-73
2022/07/22 02:44:30;;;;;;;16.55;9.40;;;15.90;99.90;;;;;;4837040;29;20391;-71
2022/07/22 02:46:56;;;;;;;14.88;9.57;;;15.80;99.90;;;;;;4836898;29;20155;-73
2022/07/22 02:49:21;;;;;;;17.83;10.45;;;15.80;99.90;;;;;;4836767;29;20050;-72
2022/07/22 02:51:47;;;;;;;16.83;10.18;;;15.80;99.90;;;;;;4837564;29;20129;-73
2022/07/22 02:54:12;;;;;;;16.42;9.95;;;15.80;99.90;;;;;;4836847;29;20503;-72
2022/07/22 02:56:38;;;;;;;15.65;9.88;;;15.80;99.90;;;;;;4836503;29;20525;-73
2022/07/22 02:59:04;;;;;;;15.52;9.05;;;15.70;99.90;;;;;;4837026;29;20034;-73
2022/07/22 03:01:29;;;;;;;18.58;9.80;;;15.60;99.90;;;;;;4835462;29;20117;-73
2022/07/22 03:03:55;;;;;;;16.55;9.93;;;15.50;99.90;;;;;;4837777;29;20473;-74
2022/07/22 03:06:21;;;;;;;16.70;9.77;;;15.50;99.90;;;;;;4837772;29;20595;-74
2022/07/22 03:08:47;;;;;;;16.40;9.48;;;15.60;99.90;;;;;;4840430;29;20030;-73
2022/07/22 03:11:13;;;;;;;21.92;10.52;;;15.60;99.90;;;;;;4840808;29;20042;-74
2022/07/22 03:13:38;;;;;;;15.30;9.88;;;15.60;99.90;;;;;;4840676;29;20037;-73
2022/07/22 03:16:04;;;;;;;18.30;10.25;;;15.70;99.90;;;;;;4838849;29;20036;-73
2022/07/22 03:18:30;;;;;;;20.73;10.13;;;15.60;99.90;;;;;;4840161;29;20034;-73
2022/07/22 03:20:55;;;;;;;16.08;9.45;;;15.60;99.90;;;;;;4840589;29;20041;-73
2022/07/22 03:23:21;;;;;;;19.13;9.52;;;15.70;99.90;;;;;;4840115;29;20033;-73
2022/07/22 03:25:47;;;;;;;19.35;9.43;;;15.70;99.90;;;;;;4840297;29;20057;-72
2022/07/22 03:28:13;;;;;;;14.63;9.65;;;15.70;99.90;;;;;;4840229;29;20053;-73
2022/07/22 03:30:38;;;;;;;18.05;9.52;;;15.70;99.90;;;;;;4839720;29;20762;-73
2022/07/22 03:33:04;;;;;;;16.58;9.15;;;15.70;99.90;;;;;;4840614;29;20041;-73
2022/07/22 03:35:30;;;;;;;21.35;9.32;;;15.60;99.90;;;;;;4838706;29;20681;-73
2022/07/22 03:37:56;;;;;;;17.35;9.82;;;15.50;99.90;;;;;;4840188;29;20045;-73
2022/07/22 03:40:21;;;;;;;19.20;9.52;;;15.50;99.90;;;;;;4838532;29;20465;-74
2022/07/22 03:42:47;;;;;;;13.52;9.18;;;15.40;99.90;;;;;;4840683;29;20472;-73
2022/07/22 03:45:13;;;;;;;18.70;8.98;;;15.30;99.90;;;;;;4839513;29;20104;-73
2022/07/22 03:47:38;;;;;;;18.30;11.00;;;15.30;99.90;;;;;;4823898;29;20045;-73
2022/07/22 03:50:04;;;;;;;19.90;11.23;;;15.30;99.90;;;;;;4838986;29;20110;-73
2022/07/22 03:52:30;;;;;;;19.27;11.40;;;15.20;99.90;;;;;;4839387;29;20052;-73
2022/07/22 03:54:56;;;;;;;21.00;11.40;;;15.20;99.90;;;;;;4839942;29;20104;-73
2022/07/22 03:57:22;;;;;;;18.58;11.60;;;15.30;99.90;;;;;;4839272;29;20073;-73
2022/07/22 03:59:48;;;;;;;19.90;12.20;;;15.40;99.90;;;;;;4840201;29;20052;-74
2022/07/22 04:02:13;;;;;;;23.63;12.80;;;15.50;99.90;;;;;;4840091;29;20038;-73
2022/07/22 04:04:39;;;;;;;26.15;11.70;;;15.50;99.90;;;;;;4839103;29;20038;-73
2022/07/22 04:07:05;;;;;;;19.88;11.32;;;15.50;99.90;;;;;;4839747;29;20034;-73
2022/07/22 04:09:30;;;;;;;17.20;10.07;;;15.50;99.90;;;;;;4839230;29;20029;-73
2022/07/22 04:11:56;;;;;;;19.80;10.02;;;15.50;99.90;;;;;;4839919;29;20034;-73
2022/07/22 04:14:22;;;;;;;17.67;9.82;;;15.40;99.90;;;;;;4838268;29;21684;-73
2022/07/22 04:16:48;;;;;;;20.02;10.15;;;15.50;99.90;;;;;;4837711;29;20045;-73
2022/07/22 04:19:14;;;;;;;17.80;9.60;;;15.50;99.90;;;;;;4838649;29;20105;-71
2022/07/22 04:21:40;;;;;;;13.95;9.30;;;15.40;99.90;;;;;;4842320;29;20042;-73
2022/07/22 04:24:06;;;;;;;15.68;9.43;;;15.40;99.90;;;;;;4838618;29;20083;-73
2022/07/22 04:26:32;;;;;;;18.50;10.38;;;15.40;99.90;;;;;;4838945;29;20069;-73
2022/07/22 04:28:57;;;;;;;15.48;9.20;;;15.50;99.90;;;;;;4838939;29;20725;-73
2022/07/22 04:31:23;;;;;;;18.52;10.40;;;15.60;99.90;;;;;;4838993;29;20034;-74
2022/07/22 04:33:49;;;;;;;17.33;9.50;;;15.70;99.90;;;;;;4839007;29;20141;-74
2022/07/22 04:36:14;;;;;;;15.88;9.82;;;15.70;99.90;;;;;;4838494;29;20039;-72
2022/07/22 04:38:40;;;;;;;19.50;10.40;;;15.80;99.90;;;;;;4838805;29;20033;-72
2022/07/22 04:41:06;;;;;;;16.33;9.63;;;16.00;99.90;;;;;;4839715;29;20067;-72
2022/07/22 04:43:32;;;;;;;16.40;9.55;;;16.00;99.90;;;;;;4837879;29;20517;-73
2022/07/22 04:45:57;;;;;;;19.55;10.23;;;16.00;99.90;;;;;;4835695;29;20133;-73
2022/07/22 04:48:23;;;;;;;16.63;9.45;;;16.10;99.90;;;;;;4836133;29;20046;-73
2022/07/22 04:50:49;;;;;;;17.15;10.85;;;16.30;99.90;;;;;;4834808;29;20517;-72
2022/07/22 04:53:14;;;;;;;22.13;10.65;;;16.60;99.90;;;;;;4837455;29;20090;-73
2022/07/22 04:55:40;;;;;;;18.50;9.38;;;16.60;99.90;;;;;;4839477;29;20038;-71
2022/07/22 04:58:06;;;;;;;23.80;10.20;;;16.70;99.90;;;;;;4839734;29;20478;-73
2022/07/22 05:00:31;;;;;;;15.43;9.52;;;16.90;99.90;;;;;;4838078;29;20044;-72
2022/07/22 05:02:57;;;;;;;17.98;9.85;;;17.00;99.90;;;;;;4839252;29;20482;-71
2022/07/22 05:05:24;;;;;;;15.13;10.02;;;17.00;99.90;;;;;;4839428;29;20034;-72
2022/07/22 05:07:50;;;;;;;18.67;10.10;;;17.10;99.90;;;;;;4823275;29;20102;-74
2022/07/22 05:10:16;;;;;;;16.05;9.40;;;17.20;99.90;;;;;;4838387;29;20042;-75
2022/07/22 05:12:43;;;;;;;17.15;9.65;;;17.20;99.90;;;;;;4839084;29;20037;-74
2022/07/22 05:15:09;;;;;;;19.25;10.20;;;17.20;99.90;;;;;;4838027;29;20065;-72
2022/07/22 05:17:34;;;;;;;15.98;10.43;;;17.30;99.90;;;;;;4833042;29;20042;-72
2022/07/22 05:20:03;;;;;;;23.92;10.27;;;17.30;99.90;;;;;;4837961;29;20036;-73
2022/07/22 05:22:29;;;;;;;17.17;9.57;;;17.40;99.90;;;;;;4830769;29;20368;-73
2022/07/22 05:24:54;;;;;;;20.13;10.38;;;17.50;99.90;;;;;;4838031;29;20033;-72
2022/07/22 05:27:20;;;;;;;17.40;10.48;;;17.60;99.90;;;;;;4833266;29;20046;-76
2022/07/22 05:29:46;;;;;;;16.65;11.30;;;17.70;99.90;;;;;;4835230;29;20034;-72
2022/07/22 05:32:11;;;;;;;22.85;11.30;;;17.60;99.90;;;;;;4836813;29;20078;-72
2022/07/22 05:34:37;;;;;;;18.52;11.20;;;17.70;99.90;;;;;;4837160;29;20234;-72
2022/07/22 05:37:03;;;;;;;22.52;11.88;;;17.80;99.90;;;;;;4836723;29;20161;-72
2022/07/22 05:39:28;;;;;;;19.17;11.13;;;17.80;99.90;;;;;;4836975;29;20129;-72
2022/07/22 05:41:54;;;;;;;17.77;11.38;;;17.90;99.90;;;;;;4837991;29;20058;-72
2022/07/22 05:44:20;;;;;;;31.80;11.82;;;17.90;99.90;;;;;;4836363;29;20105;-76
2022/07/22 05:46:45;;;;;;;17.20;12.02;;;18.00;99.90;;;;;;4837135;29;20034;-72
2022/07/22 05:49:12;;;;;;;20.60;11.50;;;18.00;99.90;;;;;;4837273;29;20085;-71
2022/07/22 05:51:37;;;;;;;20.30;11.85;;;18.00;99.90;;;;;;4837150;29;20038;-73
2022/07/22 05:54:04;;;;;;;20.98;12.43;;;18.00;99.90;;;;;;4838529;29;20045;-72
2022/07/22 05:56:29;;;;;;;18.65;12.10;;;18.10;99.90;;;;;;4836136;29;20040;-73
2022/07/22 05:58:58;;;;;;;22.08;13.20;;;18.30;99.90;;;;;;4838355;29;20037;-73
2022/07/22 06:01:24;;;;;;;23.20;12.73;;;18.50;99.90;;;;;;4837259;29;20090;-72
2022/07/22 06:03:50;;;;;;;22.00;12.77;;;18.70;99.90;;;;;;4837285;29;20038;-73
2022/07/22 06:06:16;;;;;;;23.38;13.50;;;18.90;99.90;;;;;;4837432;29;20090;-71
2022/07/22 06:08:42;;;;;;;19.52;13.07;;;18.90;99.90;;;;;;4836523;29;20044;-71
2022/07/22 06:11:07;;;;;;;26.38;13.25;;;19.00;99.90;;;;;;4837811;29;20078;-74
2022/07/22 06:13:34;;;;;;;21.77;13.65;;;19.10;99.90;;;;;;4835931;29;20113;-74
2022/07/22 06:16:00;;;;;;;25.30;13.23;;;19.30;99.90;;;;;;4838589;29;20052;-74
2022/07/22 06:18:26;;;;;;;21.88;13.55;;;19.40;99.90;;;;;;4837133;29;20038;-74
2022/07/22 06:20:51;;;;;;;21.35;13.40;;;19.40;99.90;;;;;;4838794;29;20094;-71
2022/07/22 06:23:17;;;;;;;22.30;14.65;;;19.60;99.90;;;;;;4838737;29;20625;-72
2022/07/22 06:25:43;;;;;;;25.77;14.18;;;19.80;99.90;;;;;;4838041;29;20645;-71
2022/07/22 06:28:09;;;;;;;24.85;13.27;;;19.90;99.90;;;;;;4837582;29;20045;-74
2022/07/22 06:30:35;;;;;;;25.70;14.55;;;19.80;99.90;;;;;;4839552;29;20076;-72
2022/07/22 06:33:01;;;;;;;29.83;15.35;;;19.80;99.90;;;;;;4822285;29;20058;-72
2022/07/22 06:35:27;;;;;;;24.48;14.80;;;19.90;99.90;;;;;;4837889;29;20417;-72
2022/07/22 06:37:53;;;;;;;25.27;14.23;;;20.10;99.90;;;;;;4837944;29;20477;-73
2022/07/22 06:40:19;;;;;;;18.95;13.10;;;20.10;99.90;;;;;;4838659;29;20041;-74
2022/07/22 06:42:44;;;;;;;20.77;13.55;;;20.20;99.90;;;;;;4841624;29;20030;-72
2022/07/22 06:45:10;;;;;;;20.88;13.63;;;20.20;99.90;;;;;;4823952;29;20030;-72
2022/07/22 06:47:36;;;;;;;22.58;13.30;;;20.40;99.90;;;;;;4836234;29;20466;-73
2022/07/22 06:50:07;;;;;;;22.70;14.00;;;20.60;99.90;;;;;;4840874;29;20099;-73
2022/07/22 06:52:33;;;;;;;25.58;14.23;;;20.60;99.90;;;;;;4841521;29;20046;-73
2022/07/22 06:54:58;;;;;;;24.38;13.48;;;20.80;99.90;;;;;;4842219;29;20042;-73
2022/07/22 06:57:24;;;;;;;27.08;14.45;;;20.90;99.90;;;;;;4840878;29;20048;-73
2022/07/22 06:59:50;;;;;;;26.20;13.18;;;21.10;99.90;;;;;;4841858;29;20072;-73
2022/07/22 07:02:16;;;;;;;21.30;13.60;;;21.30;99.90;;;;;;4842011;29;20038;-74
2022/07/22 07:04:41;;;;;;;21.70;13.68;;;21.30;99.90;;;;;;4841498;29;20034;-74
2022/07/22 07:07:08;;;;;;;20.98;12.65;;;21.40;99.90;;;;;;4840920;29;20034;-72
2022/07/22 07:09:34;;;;;;;25.90;14.32;;;21.50;99.90;;;;;;4840511;29;20585;-73
2022/07/22 07:12:00;;;;;;;24.73;13.40;;;21.30;99.90;;;;;;4841823;29;20033;-72
2022/07/22 07:14:26;;;;;;;23.33;14.15;;;21.50;99.90;;;;;;4841334;29;20504;-73
2022/07/22 07:16:52;;;;;;;22.75;13.35;;;21.70;99.90;;;;;;4840844;29;20508;-74
2022/07/22 07:19:19;;;;;;;24.10;14.68;;;21.70;99.90;;;;;;4841757;29;20041;-73
2022/07/22 07:21:45;;;;;;;24.05;12.98;;;21.80;99.90;;;;;;4840859;29;20049;-74
2022/07/22 07:24:11;;;;;;;21.15;13.68;;;22.00;99.90;;;;;;4841778;29;20034;-73
2022/07/22 07:26:37;;;;;;;22.48;13.88;;;22.10;99.90;;;;;;4840040;29;20046;-73
2022/07/22 07:29:02;;;;;;;23.35;12.80;;;22.20;99.90;;;;;;4840993;29;20037;-74
2022/07/22 07:31:28;;;;;;;22.65;14.70;;;22.40;99.90;;;;;;4840802;29;20387;-74
2022/07/22 07:33:54;;;;;;;23.33;14.32;;;22.60;99.90;;;;;;4841433;29;20037;-74
2022/07/22 07:36:20;;;;;;;21.88;13.57;;;22.70;99.90;;;;;;4841058;29;20037;-72
2022/07/22 07:38:46;;;;;;;22.35;13.13;;;22.80;99.90;;;;;;4840428;29;20030;-73
2022/07/22 07:41:12;;;;;;;19.55;13.43;;;22.90;99.90;;;;;;4841415;29;20034;-74
2022/07/22 07:43:38;;;;;;;28.67;13.77;;;23.10;99.90;;;;;;4839883;29;20045;-73
2022/07/22 07:46:03;;;;;;;28.23;14.27;;;23.30;99.90;;;;;;4841683;29;20030;-74
2022/07/22 07:48:29;;;;;;;19.35;13.50;;;23.20;99.90;;;;;;4839646;29;20048;-72
2022/07/22 07:50:55;;;;;;;19.90;13.27;;;23.10;99.90;;;;;;4841455;29;20054;-73
2022/07/22 07:53:20;;;;;;;19.90;13.10;;;23.30;99.90;;;;;;4840044;29;20030;-73
2022/07/22 07:55:46;;;;;;;23.50;12.98;;;23.40;99.90;;;;;;4840430;29;20118;-74
2022/07/22 07:58:12;;;;;;;18.02;12.45;;;23.60;99.90;;;;;;4840489;29;20069;-73
2022/07/22 08:00:39;;;;;;;23.25;12.48;;;23.80;99.90;;;;;;4823648;29;20485;-74
2022/07/22 08:03:05;;;;;;;18.05;12.57;;;24.00;99.90;;;;;;4824463;29;20385;-72
2022/07/22 08:05:31;;;;;;;23.83;12.90;;;24.10;99.90;;;;;;4839965;29;20038;-74
2022/07/22 08:07:56;;;;;;;22.58;13.18;;;24.30;99.90;;;;;;4839883;29;20489;-74
2022/07/22 08:10:23;;;;;;;21.38;12.57;;;24.40;99.90;;;;;;4840857;29;20042;-74
2022/07/22 08:12:49;;;;;;;21.55;12.48;;;24.30;99.90;;;;;;4839955;29;20041;-74
2022/07/22 08:15:15;;;;;;;20.00;12.93;;;24.40;99.90;;;;;;4841052;29;20034;-71
2022/07/22 08:17:41;;;;;;;21.55;13.43;;;24.50;99.90;;;;;;4839094;29;20049;-74
2022/07/22 08:20:07;;;;;;;22.73;12.90;;;24.70;99.90;;;;;;4840749;29;20373;-74
2022/07/22 08:22:33;;;;;;;18.90;11.80;;;24.70;99.90;;;;;;4839579;29;20485;-73
2022/07/22 08:25:01;;;;;;;18.50;11.30;;;24.90;99.90;;;;;;4856101;29;20037;-74
2022/07/22 08:27:27;;;;;;;16.85;11.80;;;24.80;99.90;;;;;;4851840;29;20120;-72
2022/07/22 08:29:52;;;;;;;16.95;11.15;;;24.80;99.90;;;;;;4839679;29;20537;-74
2022/07/22 08:32:18;;;;;;;20.50;12.45;;;24.90;99.90;;;;;;4840459;29;20034;-73
2022/07/22 08:34:44;;;;;;;20.38;11.82;;;25.10;99.90;;;;;;4839589;29;20030;-73
2022/07/22 08:37:10;;;;;;;21.10;12.18;;;25.30;99.90;;;;;;4840020;29;20486;-73
2022/07/22 08:39:36;;;;;;;17.92;11.95;;;25.50;99.90;;;;;;4823053;29;20030;-73
2022/07/22 08:42:02;;;;;;;17.90;11.32;;;25.40;99.90;;;;;;4840261;29;20030;-72
2022/07/22 08:44:31;;;;;;;18.10;10.80;;;25.50;99.90;;;;;;4840206;29;20030;-73
2022/07/22 08:46:59;;;;;;;15.65;10.95;;;25.70;99.90;;;;;;4839136;29;20034;-73
2022/07/22 08:49:24;;;;;;;18.23;11.23;;;26.00;99.90;;;;;;4839829;29;20521;-72
2022/07/22 08:51:50;;;;;;;20.27;11.20;;;26.20;99.90;;;;;;4838329;29;20034;-73
2022/07/22 08:54:16;;;;;;;15.07;10.63;;;26.20;99.90;;;;;;4840021;29;20034;-73
2022/07/22 08:56:42;;;;;;;14.80;10.55;;;26.30;99.90;;;;;;4839257;29;20030;-73
2022/07/22 08:59:08;;;;;;;18.75;10.40;;;26.30;99.90;;;;;;4839988;29;20037;-73
2022/07/22 09:01:34;;;;;;;18.27;10.68;;;26.20;99.90;;;;;;4838208;29;20479;-73
2022/07/22 09:04:00;;;;;;;14.45;9.20;;;26.30;99.90;;;;;;4839754;29;20128;-74
2022/07/22 09:06:33;;;;;;;13.30;9.38;;;26.50;99.90;;;;;;4839789;29;20397;-74
2022/07/22 09:08:59;;;;;;;11.88;8.95;;;26.80;99.90;;;;;;4838985;29;20045;-72
2022/07/22 09:11:30;;;;;;;12.93;9.43;;;27.00;99.90;;;;;;4839150;29;20038;-74
2022/07/22 09:13:58;;;;;;;15.32;9.23;;;27.30;98.80;;;;;;4839490;29;20037;-73
2022/07/22 09:16:40;;;;;;;12.70;9.40;;;27.40;99.80;;;;;;4839743;29;20025;-73
2022/07/22 09:19:06;;;;;;;22.08;10.05;;;27.60;97.90;;;;;;4838666;29;20053;-74
2022/07/22 09:21:34;;;;;;;13.00;9.88;;;27.60;99.20;;;;;;4839090;29;20030;-73
2022/07/22 09:24:01;;;;;;;16.23;10.32;;;27.60;97.00;;;;;;4838239;29;20050;-73
2022/07/22 09:26:32;;;;;;;13.05;9.95;;;27.70;98.00;;;;;;4838426;29;20537;-74
2022/07/22 09:28:58;;;;;;;15.77;10.25;;;27.70;97.90;;;;;;4819476;29;20700;-77
2022/07/22 09:31:32;;;;;;;14.77;9.95;;;27.90;97.80;;;;;;4836820;29;20030;-74
2022/07/22 09:33:59;;;;;;;18.25;11.68;;;27.90;98.20;;;;;;4838322;29;20029;-71
2022/07/22 09:36:25;;;;;;;14.02;10.48;;;27.90;96.50;;;;;;4837681;29;20402;-73
2022/07/22 09:38:51;;;;;;;17.80;10.35;;;28.00;98.50;;;;;;4835580;29;20042;-72
2022/07/22 09:41:17;;;;;;;16.88;10.70;;;28.30;99.30;;;;;;4833793;29;20385;-72
2022/07/22 09:43:43;;;;;;;12.23;9.18;;;28.00;96.80;;;;;;4837421;29;20038;-72
2022/07/22 09:46:09;;;;;;;15.93;10.27;;;28.20;95.90;;;;;;4839208;29;20057;-73
2022/07/22 09:48:39;;;;;;;14.88;10.30;;;28.20;96.40;;;;;;4837834;29;20046;-75
2022/07/22 09:51:05;;;;;;;14.95;10.63;;;28.00;95.20;;;;;;4837038;29;20100;-73
2022/07/22 09:53:32;;;;;;;15.98;10.30;;;28.00;96.80;;;;;;4833949;29;20065;-72
2022/07/22 09:56:04;;;;;;;13.52;10.75;;;28.40;95.80;;;;;;4837370;29;20064;-73
2022/07/22 09:58:30;;;;;;;23.52;11.15;;;28.70;94.70;;;;;;4837686;29;20038;-73
2022/07/22 10:01:03;;;;;;;14.45;10.00;;;28.40;96.20;;;;;;4837971;29;20554;-73
2022/07/22 10:03:36;;;;;;;22.33;10.57;;;28.70;95.20;;;;;;4837440;29;20508;-73
2022/07/22 10:06:03;;;;;;;13.48;10.25;;;29.00;95.70;;;;;;4837601;29;20030;-73
2022/07/22 10:08:32;;;;;;;12.77;10.40;;;29.30;93.80;;;;;;4838079;29;20564;-73
2022/07/22 10:11:05;;;;;;;11.98;9.77;;;29.50;93.80;;;;;;4835577;29;20117;-73
2022/07/22 10:13:32;;;;;;;13.65;10.48;;;29.70;92.90;;;;;;4837076;29;20459;-74
2022/07/22 10:15:59;;;;;;;17.42;11.25;;;29.90;91.60;;;;;;4836666;29;20103;-73
2022/07/22 10:18:25;;;;;;;16.13;10.23;;;29.80;91.20;;;;;;4834954;29;20034;-72
2022/07/22 10:21:06;;;;;;;14.60;10.10;;;29.40;90.50;;;;;;4835817;29;20704;-73
2022/07/22 10:23:32;;;;;;;15.68;10.93;;;29.70;93.10;;;;;;4835258;29;20057;-74
2022/07/22 10:26:00;;;;;;;20.20;11.52;;;29.70;90.60;;;;;;4836729;29;20883;-73
2022/07/22 10:28:34;;;;;;;16.42;11.10;;;30.00;92.30;;;;;;4836260;29;20034;-74
2022/07/22 10:31:20;;;;;;;15.82;10.20;;;30.10;90.60;;;;;;4836189;29;20486;-73
2022/07/22 10:33:50;;;;;;;15.07;10.38;;;30.30;88.70;;;;;;4837898;29;20061;-74
2022/07/22 10:36:32;;;;;;;14.88;9.98;;;29.90;85.20;;;;;;4835671;29;20385;-73
2022/07/22 10:39:08;;;;;;;13.98;10.18;;;29.90;86.70;;;;;;4837172;29;20063;-74
2022/07/22 10:41:42;;;;;;;17.90;10.65;;;30.00;86.80;;;;;;4837234;29;20385;-74
2022/07/22 10:44:10;;;;;;;13.00;9.60;;;30.10;87.80;;;;;;4837274;29;20041;-74
2022/07/22 10:46:53;;;;;;;11.35;9.30;;;30.40;89.20;;;;;;4836853;29;20045;-73
2022/07/22 10:49:21;;;;;;;15.77;10.70;;;30.40;82.00;;;;;;4836707;29;20062;-73
2022/07/22 10:52:06;;;;;;;18.65;10.57;;;30.40;82.00;;;;;;4816705;29;20041;-73
2022/07/22 10:54:32;;;;;;;15.93;10.85;;;30.50;85.00;;;;;;4831266;29;20038;-72
2022/07/22 10:57:00;;;;;;;16.55;10.43;;;30.40;87.90;;;;;;4837053;29;20150;-75
2022/07/22 10:59:26;;;;;;;14.10;10.27;;;30.00;80.00;;;;;;4820733;29;20442;-73
2022/07/22 11:01:53;;;;;;;22.67;10.52;;;29.90;84.10;;;;;;4837419;29;20033;-73
2022/07/22 11:04:26;;;;;;;15.60;10.20;;;30.20;84.80;;;;;;4834247;29;20042;-72
2022/07/22 11:06:53;;;;;;;16.05;10.15;;;30.50;87.70;;;;;;4825383;29;20094;-73
2022/07/22 11:09:21;;;;;;;14.23;10.20;;;30.40;82.50;;;;;;4835861;29;20034;-73
2022/07/22 11:11:55;;;;;;;15.63;10.32;;;30.50;79.60;;;;;;4834722;29;20058;-74
2022/07/22 11:14:30;;;;;;;13.90;10.52;;;30.70;80.90;;;;;;4836498;29;20509;-74
2022/07/22 11:17:09;;;;;;;14.18;10.32;;;30.50;79.90;;;;;;4835528;29;20041;-72
2022/07/22 11:19:39;;;;;;;13.27;9.95;;;30.10;79.70;;;;;;4830730;29;20044;-74
2022/07/22 11:22:10;;;;;;;12.65;10.15;;;30.00;83.10;;;;;;4835727;29;20041;-73
2022/07/22 11:24:37;;;;;;;13.20;10.00;;;30.20;84.30;;;;;;4835180;29;20053;-75
2022/07/22 11:27:11;;;;;;;18.15;10.00;;;30.60;78.00;;;;;;4834836;29;20038;-73
2022/07/22 11:29:46;;;;;;;13.80;10.13;;;30.90;77.50;;;;;;4838206;29;20030;-74
2022/07/22 11:32:13;;;;;;;17.20;9.98;;;30.90;79.30;;;;;;4839846;29;20030;-73
2022/07/22 11:34:47;;;;;;;11.98;9.85;;;31.20;76.60;;;;;;4821112;29;20038;-75
2022/07/22 11:37:18;;;;;;;12.50;9.68;;;31.10;74.60;;;;;;4838448;29;20066;-73
2022/07/22 11:39:44;;;;;;;14.52;9.48;;;31.00;75.90;;;;;;4837831;29;20034;-73
2022/07/22 11:42:09;;;;;;;13.27;10.15;;;31.20;76.30;;;;;;4836220;29;20046;-74
2022/07/22 11:44:38;;;;;;;11.55;9.05;;;31.30;71.80;;;;;;4836004;29;20162;-74
2022/07/22 11:47:06;;;;;;;12.70;9.27;;;31.30;74.10;;;;;;4831434;29;20559;-73
2022/07/22 11:49:33;;;;;;;12.48;9.63;;;31.40;72.50;;;;;;4835174;29;20050;-73
2022/07/22 11:52:00;;;;;;;13.90;9.80;;;31.50;68.70;;;;;;4836857;29;20050;-74
2022/07/22 11:54:26;;;;;;;13.55;9.65;;;31.40;72.00;;;;;;4840299;29;20347;-74
2022/07/22 11:56:52;;;;;;;12.73;9.60;;;31.50;74.20;;;;;;4834775;29;20038;-73
2022/07/22 11:59:18;;;;;;;14.32;8.98;;;31.40;72.50;;;;;;4832164;29;20537;-72
2022/07/22 12:01:46;;;;;;;12.20;9.00;;;31.70;71.90;;;;;;4819260;29;20161;-73
2022/07/22 12:04:19;;;;;;;12.23;9.63;;;31.50;68.20;;;;;;4832301;29;20430;-74
2022/07/22 12:06:46;;;;;;;14.90;9.23;;;31.60;71.50;;;;;;4838111;29;20053;-75
2022/07/22 12:09:37;;;;;;;13.23;9.02;;;32.00;75.90;;;;;;4831763;29;20488;-74
2022/07/22 12:12:04;;;;;;;14.55;8.90;;;32.00;67.40;;;;;;4822760;29;20128;-72
2022/07/22 12:14:32;;;;;;;18.30;9.02;;;32.30;72.10;;;;;;4838077;29;20045;-72
2022/07/22 12:17:10;;;;;;;13.25;9.10;;;32.50;67.40;;;;;;4839038;29;20038;-73
2022/07/22 12:19:36;;;;;;;12.32;8.80;;;32.20;68.20;;;;;;4839194;29;20045;-74
2022/07/22 12:22:08;;;;;;;12.73;8.85;;;31.80;66.60;;;;;;4838493;29;20044;-74
2022/07/22 12:24:43;;;;;;;11.02;8.88;;;31.70;72.70;;;;;;4840208;29;20557;-73
2022/07/22 12:27:21;;;;;;;15.57;9.82;;;31.70;66.80;;;;;;4839915;29;20045;-73
2022/07/22 12:29:48;;;;;;;14.45;8.77;;;31.70;64.50;;;;;;4839571;29;20041;-75